Time;durP1;ratioP1;P1;durP2;ratioP2;P2;SDS_P1;SDS_P2;PMS_P1;PMS_P2;Temp;Humidity;BMP_temperature;BMP_pressure;BME280_temperature;BME280_humidity;BME280_pressure;Samples;Min_cycle;Max_cycle;Signal;HPM_P1;HPM_P2
2022/11/29 00:00:34;;;;;;;21.77;11.83;;;6.50;99.90;;;;;;5084158;28;20181;-50
2022/11/29 00:03:00;;;;;;;24.23;10.53;;;6.60;99.90;;;;;;5084521;28;20193;-49
2022/11/29 00:05:26;;;;;;;19.23;10.67;;;6.60;99.90;;;;;;5084739;28;20187;-49
2022/11/29 00:07:51;;;;;;;19.07;10.63;;;6.70;99.90;;;;;;5083672;28;20561;-49
2022/11/29 00:10:17;;;;;;;24.40;11.57;;;6.70;99.90;;;;;;5065586;28;20218;-48
2022/11/29 00:12:46;;;;;;;25.60;12.00;;;6.70;99.90;;;;;;5084486;28;20179;-48
2022/11/29 00:15:11;;;;;;;26.97;12.00;;;6.80;99.90;;;;;;5084462;28;20213;-48
2022/11/29 00:17:37;;;;;;;26.80;12.97;;;6.80;99.90;;;;;;5083718;28;20202;-49
2022/11/29 00:20:03;;;;;;;19.00;11.97;;;6.70;99.90;;;;;;5083988;28;20194;-49
2022/11/29 00:22:29;;;;;;;19.93;11.80;;;6.70;99.90;;;;;;5083402;28;20194;-49
2022/11/29 00:24:54;;;;;;;27.40;12.63;;;6.70;99.90;;;;;;5083232;28;20179;-50
2022/11/29 00:27:20;;;;;;;26.03;12.43;;;6.70;99.90;;;;;;5083962;28;20183;-49
2022/11/29 00:29:45;;;;;;;20.83;11.83;;;6.70;99.90;;;;;;5085126;28;20733;-49
2022/11/29 00:32:11;;;;;;;27.90;12.90;;;6.70;99.90;;;;;;5084669;28;20186;-49
2022/11/29 00:34:37;;;;;;;24.77;12.77;;;6.80;99.90;;;;;;5083744;28;20190;-49
2022/11/29 00:37:03;;;;;;;25.07;13.33;;;6.80;99.90;;;;;;5083307;28;20197;-49
2022/11/29 00:39:28;;;;;;;24.77;13.13;;;6.80;99.90;;;;;;5083634;28;20195;-49
2022/11/29 00:41:54;;;;;;;25.83;12.77;;;6.90;99.90;;;;;;5082986;28;20202;-48
2022/11/29 00:44:20;;;;;;;30.53;12.93;;;6.90;99.90;;;;;;5082152;28;20182;-49
2022/11/29 00:46:46;;;;;;;29.17;12.90;;;6.80;99.90;;;;;;5082055;28;20186;-49
2022/11/29 00:49:12;;;;;;;30.90;13.43;;;6.90;99.90;;;;;;5082217;28;20204;-49
2022/11/29 00:51:37;;;;;;;23.97;13.83;;;6.80;99.90;;;;;;5081408;28;20179;-49
2022/11/29 00:54:03;;;;;;;32.80;14.00;;;6.90;99.90;;;;;;5081185;28;20182;-49
2022/11/29 00:56:29;;;;;;;33.60;13.07;;;6.90;99.90;;;;;;5080740;28;20534;-48
2022/11/29 00:58:54;;;;;;;31.10;13.80;;;6.90;99.90;;;;;;5081181;28;20205;-48
2022/11/29 01:01:20;;;;;;;22.57;13.03;;;6.90;99.90;;;;;;5080978;28;20186;-49
2022/11/29 01:03:46;;;;;;;24.90;13.37;;;6.90;99.90;;;;;;5080749;28;20198;-49
2022/11/29 01:06:14;;;;;;;24.27;13.83;;;7.00;99.90;;;;;;5080861;28;20643;-50
2022/11/29 01:08:40;;;;;;;31.70;13.80;;;7.00;99.90;;;;;;5080918;28;20249;-50
2022/11/29 01:11:12;;;;;;;31.73;14.17;;;7.00;99.90;;;;;;5082983;28;20595;-49
2022/11/29 01:13:39;;;;;;;31.90;14.00;;;7.00;99.90;;;;;;5081964;28;20159;-48
2022/11/29 01:16:05;;;;;;;26.03;13.07;;;7.00;99.90;;;;;;5064235;28;20172;-50
2022/11/29 01:18:32;;;;;;;29.67;14.10;;;7.00;99.90;;;;;;5081643;28;20262;-50
2022/11/29 01:21:00;;;;;;;22.70;13.10;;;7.00;99.90;;;;;;5082062;28;20188;-50
2022/11/29 01:23:27;;;;;;;31.30;12.60;;;7.00;99.90;;;;;;5076753;28;20208;-49
2022/11/29 01:26:03;;;;;;;27.63;13.27;;;7.00;99.90;;;;;;5073855;28;20634;-48
2022/11/29 01:28:29;;;;;;;29.20;12.47;;;7.00;99.90;;;;;;5073856;28;20661;-50
2022/11/29 01:30:55;;;;;;;20.87;12.07;;;7.00;99.90;;;;;;5074197;28;20174;-49
2022/11/29 01:33:20;;;;;;;33.63;13.23;;;7.00;99.90;;;;;;5074437;28;20165;-49
2022/11/29 01:35:48;;;;;;;26.70;12.87;;;7.00;99.90;;;;;;5073896;28;20171;-49
2022/11/29 01:38:14;;;;;;;28.53;12.90;;;7.00;99.90;;;;;;5073260;28;20211;-50
2022/11/29 01:40:40;;;;;;;26.17;12.87;;;7.00;99.90;;;;;;5073370;28;20257;-48
2022/11/29 01:43:16;;;;;;;28.07;12.27;;;7.00;99.90;;;;;;5073021;28;20198;-50
2022/11/29 01:45:43;;;;;;;26.87;13.10;;;7.10;99.90;;;;;;5073948;28;20228;-49
2022/11/29 01:48:10;;;;;;;32.37;13.27;;;7.10;99.90;;;;;;5066818;23;20227;-43
2022/11/29 01:50:37;;;;;;;33.53;14.27;;;7.10;99.90;;;;;;5073744;28;20163;-44
2022/11/29 01:53:04;;;;;;;28.93;13.60;;;7.10;99.90;;;;;;5073313;28;20556;-44
2022/11/29 01:55:31;;;;;;;37.57;13.50;;;7.10;99.90;;;;;;5073270;28;20178;-42
2022/11/29 01:57:58;;;;;;;34.03;13.17;;;7.10;99.90;;;;;;5073264;28;20203;-44
2022/11/29 02:00:24;;;;;;;31.80;13.83;;;7.10;99.90;;;;;;5073547;28;20186;-45
2022/11/29 02:03:12;;;;;;;31.70;14.30;;;7.10;99.90;;;;;;5073470;28;20510;-44
2022/11/29 02:05:47;;;;;;;29.33;12.80;;;7.10;99.90;;;;;;5073407;28;20163;-43
2022/11/29 02:08:26;;;;;;;29.40;12.13;;;7.20;99.90;;;;;;5073177;28;20300;-43
2022/11/29 02:11:17;;;;;;;30.93;12.87;;;7.20;99.90;;;;;;5073326;28;20168;-42
2022/11/29 02:14:16;;;;;;;32.03;11.93;;;7.30;99.90;;;;;;5042429;28;20259;-45
2022/11/29 02:16:50;;;;;;;32.67;14.13;;;7.30;99.90;;;;;;5073075;28;20198;-46
2022/11/29 02:19:58;;;;;;;31.67;14.03;;;7.30;99.90;;;;;;5072973;28;20228;-44
2022/11/29 02:22:34;;;;;;;31.47;14.13;;;7.30;99.90;;;;;;5062062;28;20190;-44
2022/11/29 02:25:05;;;;;;;36.47;13.90;;;7.30;99.90;;;;;;5073207;28;20252;-45
2022/11/29 02:28:07;;;;;;;34.13;15.73;;;7.30;99.90;;;;;;5072953;28;20216;-44
2022/11/29 02:31:02;;;;;;;30.80;13.97;;;7.30;99.90;;;;;;5073070;28;20630;-44
2022/11/29 02:34:13;;;;;;;28.43;14.10;;;7.30;99.90;;;;;;5073461;28;20216;-44
2022/11/29 02:37:00;;;;;;;30.57;14.33;;;7.30;99.90;;;;;;5072673;28;20720;-45
2022/11/29 02:39:54;;;;;;;42.73;15.20;;;7.30;99.90;;;;;;5072749;28;20210;-43
2022/11/29 02:42:49;;;;;;;33.47;15.33;;;7.30;99.90;;;;;;5054881;28;20182;-44
2022/11/29 02:45:43;;;;;;;36.60;14.67;;;7.30;99.90;;;;;;5073085;28;20182;-43
2022/11/29 02:48:28;;;;;;;32.50;14.77;;;7.30;99.90;;;;;;5001119;28;20217;-45
2022/11/29 02:51:01;;;;;;;38.60;15.53;;;7.30;99.90;;;;;;5072902;28;20625;-46
2022/11/29 02:54:00;;;;;;;35.80;15.10;;;7.30;99.90;;;;;;5075444;28;20189;-46
2022/11/29 02:56:57;;;;;;;32.67;14.87;;;7.30;99.90;;;;;;5076409;28;20304;-44
2022/11/29 02:59:46;;;;;;;32.17;15.27;;;7.30;99.90;;;;;;5076301;28;20194;-46
2022/11/29 03:02:27;;;;;;;39.90;16.27;;;7.30;99.90;;;;;;5076290;28;20175;-45
2022/11/29 03:05:21;;;;;;;39.37;16.20;;;7.30;99.90;;;;;;5076420;28;20158;-43
2022/11/29 03:08:24;;;;;;;35.07;16.50;;;7.30;99.90;;;;;;5076368;28;20171;-46
2022/11/29 03:11:16;;;;;;;34.57;15.50;;;7.30;99.90;;;;;;5058072;28;20178;-45
2022/11/29 03:13:58;;;;;;;37.60;15.87;;;7.30;99.90;;;;;;5075971;28;20675;-45
2022/11/29 03:16:54;;;;;;;41.50;17.00;;;7.40;99.90;;;;;;5059601;28;20206;-45
2022/11/29 03:19:23;;;;;;;42.50;17.23;;;7.40;99.90;;;;;;5076091;28;20589;-44
2022/11/29 03:22:10;;;;;;;37.83;16.87;;;7.40;99.90;;;;;;5076124;28;20301;-46
2022/11/29 03:24:46;;;;;;;40.20;17.00;;;7.40;99.90;;;;;;5075830;28;20650;-45
2022/11/29 03:27:21;;;;;;;41.40;17.13;;;7.40;99.90;;;;;;5075745;28;20276;-47
2022/11/29 03:29:57;;;;;;;48.77;16.63;;;7.40;99.90;;;;;;5075790;28;20285;-44
2022/11/29 03:32:43;;;;;;;45.00;18.07;;;7.50;99.90;;;;;;5057724;28;20175;-45
2022/11/29 03:35:17;;;;;;;54.27;18.73;;;7.40;99.90;;;;;;5076106;28;20171;-45
2022/11/29 03:38:01;;;;;;;46.47;18.50;;;7.40;99.90;;;;;;5057820;28;20194;-45
2022/11/29 03:40:48;;;;;;;59.03;20.40;;;7.50;99.90;;;;;;5075717;28;20229;-43
2022/11/29 03:43:24;;;;;;;52.30;19.80;;;7.50;99.90;;;;;;5075812;28;20156;-44
2022/11/29 03:46:16;;;;;;;50.90;19.60;;;7.50;99.90;;;;;;5075942;28;20163;-42
2022/11/29 03:48:47;;;;;;;52.00;18.83;;;7.50;99.90;;;;;;5044534;28;20262;-43
2022/11/29 03:51:22;;;;;;;60.27;20.10;;;7.50;99.90;;;;;;5075624;28;20175;-45
2022/11/29 03:54:00;;;;;;;57.43;20.70;;;7.50;99.90;;;;;;5075339;28;20175;-45
2022/11/29 03:56:30;;;;;;;55.73;19.40;;;7.50;99.90;;;;;;5057343;28;20656;-42
2022/11/29 03:59:20;;;;;;;52.03;19.90;;;7.50;99.90;;;;;;5075266;28;20670;-45
2022/11/29 04:01:54;;;;;;;51.03;19.93;;;7.50;99.90;;;;;;5075292;28;20163;-46
2022/11/29 04:04:41;;;;;;;56.87;20.97;;;7.60;99.90;;;;;;5074452;28;20560;-43
2022/11/29 04:07:31;;;;;;;50.70;20.17;;;7.50;99.90;;;;;;5075196;28;20642;-43
2022/11/29 04:10:13;;;;;;;71.43;20.57;;;7.50;99.90;;;;;;5075061;28;20708;-44
2022/11/29 04:12:43;;;;;;;70.60;21.27;;;7.60;99.90;;;;;;5057299;28;20627;-43
2022/11/29 04:15:29;;;;;;;56.93;21.53;;;7.60;99.90;;;;;;5056850;28;20180;-45
2022/11/29 04:18:07;;;;;;;66.77;20.33;;;7.60;99.90;;;;;;5056873;28;20619;-43
2022/11/29 04:20:46;;;;;;;64.17;20.80;;;7.60;99.90;;;;;;5075171;28;20178;-44
2022/11/29 04:23:49;;;;;;;67.43;21.33;;;7.60;99.90;;;;;;5056779;28;20613;-46
2022/11/29 04:26:52;;;;;;;61.43;19.53;;;7.60;99.90;;;;;;5074707;28;20518;-42
2022/11/29 04:29:29;;;;;;;60.57;21.50;;;7.60;99.90;;;;;;5074683;28;20205;-49
2022/11/29 04:32:13;;;;;;;55.40;19.60;;;7.60;99.90;;;;;;5074871;28;20169;-50
2022/11/29 04:35:23;;;;;;;52.43;19.23;;;7.60;99.90;;;;;;5075094;28;20183;-49
2022/11/29 04:38:05;;;;;;;56.63;20.17;;;7.60;99.90;;;;;;5057039;28;20218;-47
2022/11/29 04:41:00;;;;;;;68.80;21.67;;;7.70;99.90;;;;;;5074785;28;20164;-48
2022/11/29 04:43:57;;;;;;;51.90;20.77;;;7.70;99.90;;;;;;5056901;28;20203;-49
2022/11/29 04:46:35;;;;;;;55.07;19.67;;;7.70;99.90;;;;;;5078327;28;20172;-49
2022/11/29 04:49:39;;;;;;;60.50;20.60;;;7.60;99.90;;;;;;5058268;28;20246;-49
2022/11/29 04:52:31;;;;;;;55.83;19.17;;;7.70;99.90;;;;;;5074258;28;20179;-52
2022/11/29 04:55:18;;;;;;;60.60;21.37;;;7.70;99.90;;;;;;5074316;28;20175;-48
2022/11/29 04:58:07;;;;;;;55.33;20.57;;;7.70;99.90;;;;;;5056026;28;20294;-49
2022/11/29 05:00:44;;;;;;;55.70;20.00;;;7.70;99.90;;;;;;5073979;28;20168;-50
2022/11/29 05:03:26;;;;;;;57.87;21.60;;;7.70;99.90;;;;;;5074198;28;20160;-49
2022/11/29 05:06:06;;;;;;;59.43;21.93;;;7.70;99.90;;;;;;5074514;28;20162;-49
2022/11/29 05:08:45;;;;;;;53.70;20.90;;;7.70;99.90;;;;;;5073710;28;20291;-47
2022/11/29 05:11:42;;;;;;;52.17;20.57;;;7.70;99.90;;;;;;5055915;28;20170;-49
2022/11/29 05:14:07;;;;;;;65.97;22.20;;;7.70;99.90;;;;;;5073810;28;20187;-50
2022/11/29 05:16:45;;;;;;;59.77;22.23;;;7.70;99.90;;;;;;5073858;28;20199;-50
2022/11/29 05:19:47;;;;;;;59.57;21.63;;;7.70;99.90;;;;;;5073631;28;20705;-49
2022/11/29 05:22:26;;;;;;;58.27;20.10;;;7.70;99.90;;;;;;5073762;28;20164;-48
2022/11/29 05:24:58;;;;;;;67.90;22.03;;;7.70;99.90;;;;;;5073849;28;20163;-49
2022/11/29 05:27:44;;;;;;;69.03;22.27;;;7.70;99.90;;;;;;5073843;28;20178;-48
2022/11/29 05:30:14;;;;;;;68.57;23.50;;;7.70;99.90;;;;;;5073417;28;20190;-49
2022/11/29 05:33:31;;;;;;;59.57;21.40;;;7.70;99.90;;;;;;5055553;28;20182;-49
2022/11/29 05:36:34;;;;;;;61.30;22.30;;;7.70;99.90;;;;;;5028818;28;20677;-50
2022/11/29 05:39:15;;;;;;;71.70;21.97;;;7.70;99.90;;;;;;5073676;28;20203;-50
2022/11/29 05:41:57;;;;;;;61.43;21.57;;;7.70;99.90;;;;;;5073332;28;20182;-49
2022/11/29 05:44:41;;;;;;;65.80;22.00;;;7.70;99.90;;;;;;5057397;28;20242;-49
2022/11/29 05:47:11;;;;;;;62.67;22.33;;;7.70;99.90;;;;;;5072993;28;20206;-52
2022/11/29 05:49:58;;;;;;;67.60;22.80;;;7.70;99.90;;;;;;5073026;28;20298;-51
2022/11/29 05:52:40;;;;;;;64.23;23.90;;;7.70;99.90;;;;;;5055581;28;20587;-48
2022/11/29 05:55:23;;;;;;;70.67;21.93;;;7.70;99.90;;;;;;5073682;28;20182;-48
2022/11/29 05:58:06;;;;;;;63.23;21.87;;;7.70;99.90;;;;;;5073122;28;20187;-48
2022/11/29 06:00:47;;;;;;;65.77;22.33;;;7.70;99.90;;;;;;5055009;28;20288;-48
2022/11/29 06:03:28;;;;;;;65.53;22.50;;;7.70;99.90;;;;;;5056009;28;20570;-49
2022/11/29 06:06:30;;;;;;;62.97;21.87;;;7.70;99.90;;;;;;5073004;28;20222;-50
2022/11/29 06:09:22;;;;;;;70.53;21.87;;;7.70;99.90;;;;;;5055036;28;20199;-47
2022/11/29 06:12:12;;;;;;;75.50;23.77;;;7.70;99.90;;;;;;5073030;28;20306;-50
2022/11/29 06:14:47;;;;;;;76.43;22.53;;;7.70;99.90;;;;;;5046774;28;20206;-49
2022/11/29 06:17:54;;;;;;;57.20;22.30;;;7.70;99.90;;;;;;5073150;28;20190;-49
2022/11/29 06:20:36;;;;;;;70.17;22.03;;;7.80;99.90;;;;;;5073158;28;20171;-50
2022/11/29 06:23:36;;;;;;;80.17;22.70;;;7.70;99.90;;;;;;5073053;28;20182;-48
2022/11/29 06:26:43;;;;;;;67.03;22.00;;;7.70;99.90;;;;;;5072817;28;20526;-48
2022/11/29 06:29:24;;;;;;;86.03;23.43;;;7.70;99.90;;;;;;5076487;28;20720;-51
2022/11/29 06:32:11;;;;;;;88.33;25.63;;;7.70;99.90;;;;;;5077035;28;20260;-50
2022/11/29 06:34:55;;;;;;;82.07;25.13;;;7.70;99.90;;;;;;5077503;28;20167;-50
2022/11/29 06:37:40;;;;;;;82.57;25.50;;;7.70;99.90;;;;;;5076878;28;20199;-49
2022/11/29 06:40:11;;;;;;;92.53;25.80;;;7.70;99.90;;;;;;5076659;28;20199;-49
2022/11/29 06:42:37;;;;;;;96.53;25.80;;;7.70;99.90;;;;;;5076961;28;20226;-49
2022/11/29 06:45:03;;;;;;;95.07;27.20;;;7.70;99.90;;;;;;5076508;28;20187;-50
2022/11/29 06:48:10;;;;;;;80.33;25.83;;;7.70;99.90;;;;;;5076638;28;20179;-49
2022/11/29 06:50:53;;;;;;;93.57;26.43;;;7.70;99.90;;;;;;4995130;28;20620;-48
2022/11/29 06:53:32;;;;;;;86.03;25.80;;;7.70;99.90;;;;;;5069021;28;20195;-49
2022/11/29 06:56:16;;;;;;;85.83;26.17;;;7.70;99.90;;;;;;5076743;28;20255;-49
2022/11/29 06:59:00;;;;;;;86.43;24.77;;;7.70;99.90;;;;;;5076284;28;20226;-49
2022/11/29 07:01:50;;;;;;;89.17;25.33;;;7.70;99.90;;;;;;5058512;28;20199;-48
2022/11/29 07:04:34;;;;;;;100.20;26.97;;;7.70;99.90;;;;;;5076463;28;20171;-49
2022/11/29 07:07:00;;;;;;;88.50;25.30;;;7.70;99.90;;;;;;5076156;28;20199;-50
2022/11/29 07:09:32;;;;;;;87.30;26.17;;;7.80;99.90;;;;;;5076113;28;20725;-50
2022/11/29 07:11:58;;;;;;;79.30;25.50;;;7.70;99.90;;;;;;5076339;28;20166;-50
2022/11/29 07:14:24;;;;;;;80.97;25.40;;;7.70;99.90;;;;;;5058020;28;20175;-50
2022/11/29 07:17:03;;;;;;;91.27;25.60;;;7.70;99.90;;;;;;5076246;28;20648;-47
2022/11/29 07:19:36;;;;;;;81.20;25.63;;;7.70;99.90;;;;;;5075905;28;20689;-51
2022/11/29 07:22:35;;;;;;;99.90;26.13;;;7.70;99.90;;;;;;5076141;28;20167;-51
2022/11/29 07:25:30;;;;;;;99.37;27.70;;;7.70;99.90;;;;;;5057906;28;20688;-48
2022/11/29 07:28:07;;;;;;;97.77;26.87;;;7.70;99.90;;;;;;5040293;28;20191;-48
2022/11/29 07:30:49;;;;;;;91.77;25.77;;;7.70;99.90;;;;;;5076060;28;20163;-50
2022/11/29 07:33:25;;;;;;;92.20;26.87;;;7.70;99.90;;;;;;5075961;28;20242;-49
2022/11/29 07:36:17;;;;;;;98.53;26.67;;;7.70;99.90;;;;;;5076094;28;20233;-49
2022/11/29 07:38:52;;;;;;;95.20;25.13;;;7.70;99.90;;;;;;5075435;28;20555;-47
2022/11/29 07:41:43;;;;;;;98.13;26.73;;;7.80;99.90;;;;;;5075363;28;20175;-49
2022/11/29 07:44:20;;;;;;;96.70;26.40;;;7.80;99.90;;;;;;5075690;28;20171;-49
2022/11/29 07:46:45;;;;;;;100.67;26.47;;;7.80;99.90;;;;;;5075755;28;20156;-50
2022/11/29 07:49:11;;;;;;;101.73;27.30;;;7.80;99.90;;;;;;5072804;23;20291;-46
2022/11/29 07:51:36;;;;;;;99.43;27.43;;;7.80;99.90;;;;;;5095550;28;20258;-45
2022/11/29 07:54:03;;;;;;;95.07;28.27;;;7.80;99.90;;;;;;5095640;28;20174;-45
2022/11/29 07:56:28;;;;;;;103.03;27.57;;;7.80;99.90;;;;;;5095652;28;20210;-45
2022/11/29 07:58:54;;;;;;;125.93;30.13;;;7.90;99.90;;;;;;5095227;28;20214;-45
2022/11/29 08:01:19;;;;;;;104.83;28.57;;;7.80;99.90;;;;;;5095553;28;20201;-45
2022/11/29 08:03:45;;;;;;;106.30;28.87;;;7.80;99.90;;;;;;5095404;28;20171;-45
2022/11/29 08:06:10;;;;;;;97.10;27.27;;;7.90;99.90;;;;;;5095592;28;20175;-45
2022/11/29 08:08:36;;;;;;;105.77;28.53;;;7.80;99.90;;;;;;5095617;28;20199;-45
2022/11/29 08:11:08;;;;;;;115.07;30.40;;;7.80;99.90;;;;;;5095478;28;20186;-44
2022/11/29 08:13:34;;;;;;;123.90;32.00;;;7.90;99.90;;;;;;5095444;28;20227;-45
2022/11/29 08:15:59;;;;;;;121.00;33.23;;;7.80;99.90;;;;;;5095544;28;20179;-46
2022/11/29 08:18:25;;;;;;;150.53;36.93;;;7.80;99.90;;;;;;5095230;28;20735;-46
2022/11/29 08:20:50;;;;;;;142.20;37.77;;;7.90;99.90;;;;;;5095036;28;20186;-46
2022/11/29 08:23:16;;;;;;;160.37;38.80;;;7.80;99.90;;;;;;5094996;28;20179;-47
2022/11/29 08:25:41;;;;;;;154.20;38.03;;;7.80;99.90;;;;;;5094990;28;20201;-45
2022/11/29 08:28:08;;;;;;;139.93;35.63;;;7.80;99.90;;;;;;5094877;28;20646;-47
2022/11/29 08:30:33;;;;;;;129.80;33.27;;;7.80;99.90;;;;;;5095382;28;20305;-45
2022/11/29 08:32:59;;;;;;;150.43;35.43;;;7.90;99.90;;;;;;5094840;28;20266;-46
2022/11/29 08:35:25;;;;;;;115.13;28.53;;;7.90;99.90;;;;;;5095183;28;20187;-46
2022/11/29 08:37:50;;;;;;;120.03;28.83;;;7.80;99.90;;;;;;5094859;28;20260;-46
2022/11/29 08:40:17;;;;;;;131.77;30.70;;;7.80;99.90;;;;;;5094617;28;20175;-46
2022/11/29 08:42:42;;;;;;;120.30;27.63;;;7.90;99.90;;;;;;5094951;28;20171;-46
2022/11/29 08:45:09;;;;;;;116.40;27.47;;;7.80;99.90;;;;;;5094996;28;20205;-46
2022/11/29 08:47:36;;;;;;;111.97;28.47;;;7.80;99.90;;;;;;5094755;28;20183;-47
2022/11/29 08:50:08;;;;;;;125.27;29.87;;;7.80;99.90;;;;;;5094345;28;20595;-49
2022/11/29 08:55:24;;;;;;;130.97;28.73;;;7.90;99.90;;;;;;5095174;28;20701;-49
2022/11/29 08:57:50;;;;;;;123.73;28.57;;;7.90;99.90;;;;;;5094589;28;20215;-48
2022/11/29 09:00:17;;;;;;;131.57;30.00;;;7.90;99.90;;;;;;5094324;28;20622;-49
2022/11/29 09:02:43;;;;;;;121.13;29.03;;;7.90;99.90;;;;;;5094465;28;20179;-50
2022/11/29 09:05:10;;;;;;;119.57;30.70;;;7.90;99.90;;;;;;5094450;28;20631;-49
2022/11/29 09:07:36;;;;;;;127.73;31.30;;;7.90;99.90;;;;;;5094207;28;20215;-49
2022/11/29 09:10:04;;;;;;;128.57;31.43;;;8.00;99.90;;;;;;5094342;28;20649;-51
2022/11/29 09:12:34;;;;;;;114.17;31.63;;;8.00;99.90;;;;;;5094368;28;20595;-49
2022/11/29 09:15:00;;;;;;;126.50;32.57;;;8.00;99.90;;;;;;5094747;28;20179;-49
2022/11/29 09:17:26;;;;;;;118.23;32.67;;;8.00;99.90;;;;;;5094404;28;20203;-49
2022/11/29 09:19:52;;;;;;;119.80;31.17;;;8.00;99.90;;;;;;5093799;28;20734;-50
2022/11/29 09:22:17;;;;;;;132.53;33.67;;;8.00;99.90;;;;;;5093917;28;20186;-49
2022/11/29 09:24:45;;;;;;;98.30;28.97;;;8.00;99.90;;;;;;5093938;28;20182;-49
2022/11/29 09:27:10;;;;;;;117.60;31.70;;;8.00;99.90;;;;;;5094032;28;20194;-48
2022/11/29 09:29:36;;;;;;;113.00;31.70;;;8.00;99.90;;;;;;5093714;28;20205;-50
2022/11/29 09:32:01;;;;;;;117.27;30.40;;;8.10;99.90;;;;;;5094217;28;20224;-49
2022/11/29 09:34:27;;;;;;;114.63;30.07;;;8.10;99.90;;;;;;5093629;28;20630;-49
2022/11/29 09:36:52;;;;;;;129.27;31.80;;;8.10;99.90;;;;;;5093536;28;20600;-50
2022/11/29 09:39:18;;;;;;;129.37;32.20;;;8.20;99.90;;;;;;5093842;28;20209;-49
2022/11/29 09:42:04;;;;;;;143.97;33.67;;;8.10;99.90;;;;;;5093561;28;20175;-50
2022/11/29 09:44:41;;;;;;;143.47;33.83;;;8.20;99.90;;;;;;5093639;28;20155;-50
2022/11/29 09:47:44;;;;;;;118.10;32.87;;;8.20;99.90;;;;;;5075573;28;20710;-51
2022/11/29 09:50:18;;;;;;;128.93;31.17;;;8.20;99.90;;;;;;5094487;28;20285;-49
2022/11/29 09:52:50;;;;;;;131.57;33.37;;;8.20;99.90;;;;;;5096646;28;20272;-49
2022/11/29 09:55:37;;;;;;;129.90;33.57;;;8.20;99.90;;;;;;5093924;28;20687;-50
2022/11/29 09:58:08;;;;;;;126.27;31.57;;;8.20;99.90;;;;;;5093222;28;20697;-50
2022/11/29 10:00:41;;;;;;;131.70;32.20;;;8.30;99.90;;;;;;5093801;28;20174;-48
2022/11/29 10:03:50;;;;;;;116.70;33.37;;;8.30;99.90;;;;;;5092614;28;20173;-50
2022/11/29 10:06:35;;;;;;;114.97;32.10;;;8.30;99.90;;;;;;5011479;28;20561;-48
2022/11/29 10:09:15;;;;;;;127.90;31.90;;;8.30;99.90;;;;;;5088308;28;20219;-50
2022/11/29 10:11:57;;;;;;;102.53;29.27;;;8.40;99.90;;;;;;5093547;28;20167;-49
2022/11/29 10:14:29;;;;;;;105.83;30.47;;;8.40;99.90;;;;;;5093410;28;20509;-49
2022/11/29 10:17:23;;;;;;;120.77;32.10;;;8.40;99.90;;;;;;5093160;28;20191;-51
2022/11/29 10:19:52;;;;;;;103.57;29.93;;;8.40;99.90;;;;;;5093798;28;20190;-49
2022/11/29 10:22:36;;;;;;;98.87;28.17;;;8.40;99.90;;;;;;5093556;28;20251;-50
2022/11/29 10:25:05;;;;;;;109.50;28.53;;;8.50;99.90;;;;;;5093409;28;20163;-50
2022/11/29 10:27:31;;;;;;;83.80;27.07;;;8.50;99.90;;;;;;5093315;28;20193;-51
2022/11/29 10:29:59;;;;;;;90.43;26.00;;;8.50;99.90;;;;;;5093004;28;20597;-50
2022/11/29 10:32:29;;;;;;;93.53;27.50;;;8.60;99.90;;;;;;5093492;28;20182;-50
2022/11/29 10:34:57;;;;;;;99.40;28.77;;;8.60;99.90;;;;;;5093236;28;20284;-50
2022/11/29 10:37:23;;;;;;;92.53;29.80;;;8.60;99.90;;;;;;5093195;28;20208;-50
2022/11/29 10:39:58;;;;;;;108.30;29.93;;;8.70;99.90;;;;;;5093070;28;20201;-50
2022/11/29 10:45:36;;;;;;;79.83;26.07;;;8.70;99.90;;;;;;5093245;28;20217;-50
2022/11/29 10:48:13;;;;;;;92.23;27.70;;;8.70;99.90;;;;;;5093405;28;20622;-49
2022/11/29 10:50:42;;;;;;;97.27;28.60;;;8.70;99.90;;;;;;5092917;28;20217;-50
2022/11/29 10:53:14;;;;;;;102.63;29.30;;;8.80;99.90;;;;;;5092838;28;20251;-50
2022/11/29 10:55:52;;;;;;;97.17;28.87;;;8.80;99.90;;;;;;5092807;28;20316;-50
2022/11/29 10:58:25;;;;;;;105.73;28.53;;;8.90;99.90;;;;;;5092831;28;20237;-52
2022/11/29 11:01:05;;;;;;;93.83;29.10;;;8.90;99.90;;;;;;5093105;28;20209;-49
2022/11/29 11:03:42;;;;;;;109.90;31.20;;;9.00;99.90;;;;;;5092638;28;20171;-49
2022/11/29 11:06:11;;;;;;;113.70;29.87;;;9.00;99.90;;;;;;5092861;28;20566;-49
2022/11/29 11:08:40;;;;;;;99.70;29.80;;;9.00;99.90;;;;;;5092943;28;20210;-51
2022/11/29 11:11:06;;;;;;;96.63;28.27;;;9.00;99.90;;;;;;5092668;28;20631;-51
2022/11/29 11:13:33;;;;;;;91.23;28.67;;;9.10;99.90;;;;;;5093691;28;20183;-51
2022/11/29 11:16:15;;;;;;;103.70;28.83;;;9.00;99.90;;;;;;5096279;28;20191;-51
2022/11/29 11:18:42;;;;;;;102.43;30.27;;;9.10;99.90;;;;;;5096191;28;20701;-51
2022/11/29 11:21:11;;;;;;;102.50;31.23;;;9.10;99.90;;;;;;5097477;28;20182;-50
2022/11/29 11:23:51;;;;;;;88.80;29.80;;;9.10;99.90;;;;;;5096105;28;20221;-49
2022/11/29 11:26:16;;;;;;;70.47;26.40;;;9.10;99.90;;;;;;5096443;28;20173;-51
2022/11/29 11:29:00;;;;;;;65.93;25.10;;;9.00;99.90;;;;;;5096066;28;20591;-50
2022/11/29 11:31:27;;;;;;;61.80;25.70;;;9.00;99.90;;;;;;5077938;28;20619;-51
2022/11/29 11:33:53;;;;;;;65.03;25.50;;;9.00;99.90;;;;;;5096334;28;20184;-49
2022/11/29 11:36:19;;;;;;;57.53;24.00;;;9.00;99.90;;;;;;5095897;28;20601;-49
2022/11/29 11:38:52;;;;;;;61.83;24.70;;;9.00;99.90;;;;;;5095782;28;20192;-49
2022/11/29 11:42:35;;;;;;;64.47;26.13;;;9.00;99.90;;;;;;5095870;28;20179;-48
2022/11/29 11:44:25;;;;;;;61.87;26.17;;;8.90;99.90;;;;;;5095609;28;20184;-50
2022/11/29 11:46:51;;;;;;;66.93;26.50;;;8.90;99.90;;;;;;5096871;28;20177;-50
2022/11/29 11:49:43;;;;;;;70.33;25.20;;;9.00;99.90;;;;;;5095807;28;20218;-50
2022/11/29 11:52:19;;;;;;;60.33;25.13;;;8.90;99.90;;;;;;5095622;28;20203;-49
2022/11/29 11:54:53;;;;;;;62.17;26.57;;;8.90;99.90;;;;;;5096318;28;20164;-51
2022/11/29 11:57:20;;;;;;;55.23;24.17;;;8.90;99.90;;;;;;5095552;28;20229;-49
2022/11/29 11:59:51;;;;;;;63.80;23.47;;;8.90;99.90;;;;;;5077315;28;20757;-50
2022/11/29 12:02:35;;;;;;;60.87;23.37;;;8.90;99.90;;;;;;5096192;28;20171;-50
2022/11/29 12:05:05;;;;;;;58.10;23.93;;;8.90;99.90;;;;;;5095821;28;20173;-51
2022/11/29 12:07:40;;;;;;;57.90;23.73;;;8.90;99.90;;;;;;5095474;28;20235;-49
2022/11/29 12:10:15;;;;;;;59.03;24.73;;;8.90;99.90;;;;;;5097560;28;20211;-50
2022/11/29 12:12:42;;;;;;;56.20;22.93;;;8.90;99.90;;;;;;5095538;28;20182;-50
2022/11/29 12:15:20;;;;;;;54.60;22.87;;;8.90;99.90;;;;;;5095506;28;20177;-50
2022/11/29 12:18:02;;;;;;;63.27;25.00;;;8.80;99.90;;;;;;5095715;28;20241;-49
2022/11/29 12:20:38;;;;;;;60.03;24.17;;;8.80;99.90;;;;;;5095050;28;20168;-49
2022/11/29 12:23:15;;;;;;;56.03;22.33;;;8.90;99.90;;;;;;5095095;28;20714;-50
2022/11/29 12:25:47;;;;;;;57.17;22.47;;;8.80;99.90;;;;;;5094923;28;20173;-50
2022/11/29 12:28:15;;;;;;;55.13;21.93;;;8.80;99.90;;;;;;5094979;28;20231;-50
2022/11/29 12:31:25;;;;;;;67.97;24.93;;;8.80;99.90;;;;;;5095261;28;20186;-50
2022/11/29 12:34:18;;;;;;;56.33;23.20;;;8.80;99.90;;;;;;5095081;28;20178;-51
2022/11/29 12:37:03;;;;;;;57.23;22.87;;;8.90;99.90;;;;;;5094970;28;20201;-49
2022/11/29 12:39:47;;;;;;;54.13;24.00;;;8.90;99.90;;;;;;5094789;28;20182;-50
2022/11/29 12:42:35;;;;;;;56.90;24.03;;;8.90;99.90;;;;;;5094527;28;20672;-49
2022/11/29 12:45:27;;;;;;;56.13;24.80;;;8.90;99.90;;;;;;5094789;28;20171;-47
2022/11/29 12:48:09;;;;;;;59.47;24.13;;;8.90;99.90;;;;;;5094703;28;20169;-45
2022/11/29 12:50:39;;;;;;;59.33;26.03;;;8.90;99.90;;;;;;5094588;28;20211;-46
2022/11/29 12:53:07;;;;;;;60.97;27.47;;;8.90;99.90;;;;;;5094880;28;20263;-47
2022/11/29 12:56:02;;;;;;;60.37;26.43;;;8.90;99.90;;;;;;5094677;28;20210;-46
2022/11/29 12:58:51;;;;;;;60.00;25.80;;;9.00;99.90;;;;;;5094341;28;20309;-45
2022/11/29 13:01:30;;;;;;;58.90;25.23;;;8.90;99.90;;;;;;5094538;28;20542;-46
2022/11/29 13:04:24;;;;;;;59.77;25.83;;;8.90;99.90;;;;;;5094316;28;20166;-46
2022/11/29 13:07:22;;;;;;;56.87;23.37;;;8.90;99.90;;;;;;5094245;28;20175;-45
2022/11/29 13:10:20;;;;;;;52.43;21.97;;;8.90;99.90;;;;;;5094390;28;20237;-46
2022/11/29 13:12:54;;;;;;;52.57;21.57;;;8.90;99.90;;;;;;5094296;28;20167;-45
2022/11/29 13:15:33;;;;;;;51.07;21.93;;;9.00;99.90;;;;;;5094048;28;20170;-46
2022/11/29 13:18:13;;;;;;;52.97;22.47;;;8.90;99.90;;;;;;5094371;28;20685;-46
2022/11/29 13:20:53;;;;;;;60.73;24.47;;;8.90;99.90;;;;;;5093967;28;20166;-46
2022/11/29 13:23:31;;;;;;;57.00;25.70;;;8.90;99.90;;;;;;5094544;28;20166;-45
2022/11/29 13:26:00;;;;;;;57.90;23.73;;;8.90;99.90;;;;;;5094149;28;20164;-46
2022/11/29 13:28:39;;;;;;;62.67;24.83;;;8.90;99.90;;;;;;5093682;28;20200;-46
2022/11/29 13:31:17;;;;;;;58.53;25.37;;;8.90;99.90;;;;;;5094209;28;20553;-47